^^
Station Historical Data
Daily Summary for October 14, 2017 Units:  Both    English   Metric
« Previous Day
Next Day »
Daily Weekly Monthly Yearly Custom
  High: Low: Average:
Temperature: TemperatureF °F /  -17.8 °C 56.3 °F /  13.5 °C 72.6 °F /  22.6 °C
Dew Point: DewpointF °F /  -17.8 °C -8.1 °F /  -22.3 °C 12.3 °F /  -10.9 °C
Humidity: Humidity% 3% 13%
Wind Speed: WindSpeedMPHmph /  0km/h - 1.9mph /  3.1km/h
Wind Gust: WindSpeedGustMPHmph /  0km/h - -
Wind- - WSW
Pressure: PressureIn in /  0 hPa 29.72 in /  1006.3 hPa -
Precipitation: 0.00 in /  0 mm    
Historical Graphs
 
 
Tabular Data for October 14, 2017
Time Temperature Dew Point Pressure Wind Wind Speed Wind Gust Humidity Rainfall Rate (Hourly) solar Conditions
TemperatureF °F /  -17.8 °C DewpointF °F /  -17.8 °C PressureInin /  0hPa Calm     Humidity% HourlyPrecipInin /  0mm SolarRadiationWatts/m^2 W/m2 Conditions
00:01 65.3 °F /  18.5 °C 27.5 °F /  -2.5 °C 29.85in /  1010.7hPa Calm   2.0mph /  3.2km/h 24% 0.00in /  0mm 0.0 W/m2
00:06 65.3 °F /  18.5 °C 27.5 °F /  -2.5 °C 29.85in /  1010.7hPa Calm   2.0mph /  3.2km/h 24% 0.00in /  0mm 0.0 W/m2
00:11 65.1 °F /  18.4 °C 28.4 °F /  -2 °C 29.85in /  1010.7hPa Calm   2.0mph /  3.2km/h 25% 0.00in /  0mm 0.0 W/m2
00:16 64.9 °F /  18.3 °C 28.2 °F /  -2.1 °C 29.85in /  1010.7hPa Calm     25% 0.00in /  0mm 0.0 W/m2
00:21 64.8 °F /  18.2 °C 28.0 °F /  -2.2 °C 29.85in /  1010.7hPa Calm   1.0mph /  1.6km/h 25% 0.00in /  0mm 0.0 W/m2
00:26 64.8 °F /  18.2 °C 28.0 °F /  -2.2 °C 29.85in /  1010.7hPa ENE 0.9mph /  1.4km/h 3.0mph /  4.8km/h 25% 0.00in /  0mm 0.0 W/m2
00:31 64.6 °F /  18.1 °C 28.0 °F /  -2.2 °C 29.85in /  1010.7hPa Calm     25% 0.00in /  0mm 0.0 W/m2
00:37 64.6 °F /  18.1 °C 28.0 °F /  -2.2 °C 29.85in /  1010.7hPa NE 0.9mph /  1.4km/h 3.0mph /  4.8km/h 25% 0.00in /  0mm 0.0 W/m2
00:42 64.2 °F /  17.9 °C 27.7 °F /  -2.4 °C 29.85in /  1010.7hPa East 0.9mph /  1.4km/h 2.0mph /  3.2km/h 25% 0.00in /  0mm 0.0 W/m2
00:47 64.2 °F /  17.9 °C 28.6 °F /  -1.9 °C 29.85in /  1010.7hPa Calm   2.0mph /  3.2km/h 26% 0.00in /  0mm 0.0 W/m2
00:52 64.0 °F /  17.8 °C 28.4 °F /  -2 °C 29.84in /  1010.4hPa Calm   3.0mph /  4.8km/h 26% 0.00in /  0mm 0.0 W/m2
00:57 63.9 °F /  17.7 °C 28.2 °F /  -2.1 °C 29.84in /  1010.4hPa Calm   1.0mph /  1.6km/h 26% 0.00in /  0mm 0.0 W/m2
01:02 63.7 °F /  17.6 °C 29.1 °F /  -1.6 °C 29.84in /  1010.4hPa Calm     27% 0.00in /  0mm 0.0 W/m2
01:07 63.3 °F /  17.4 °C 28.8 °F /  -1.8 °C 29.84in /  1010.4hPa Calm   1.0mph /  1.6km/h 27% 0.00in /  0mm 0.0 W/m2
01:12 63.1 °F /  17.3 °C 28.6 °F /  -1.9 °C 29.83in /  1010hPa SE 0.9mph /  1.4km/h 1.0mph /  1.6km/h 27% 0.00in /  0mm 0.0 W/m2
01:18 63.0 °F /  17.2 °C 28.4 °F /  -2 °C 29.83in /  1010hPa Calm   1.0mph /  1.6km/h 27% 0.00in /  0mm 0.0 W/m2
01:28 62.2 °F /  16.8 °C 27.9 °F /  -2.3 °C 29.83in /  1010hPa Calm     27% 0.00in /  0mm 0.0 W/m2
01:34 61.9 °F /  16.6 °C 28.4 °F /  -2 °C 29.83in /  1010hPa Calm     28% 0.00in /  0mm 0.0 W/m2
01:40 61.7 °F /  16.5 °C 28.2 °F /  -2.1 °C 29.82in /  1009.7hPa Calm     28% 0.00in /  0mm 0.0 W/m2
01:45 61.3 °F /  16.3 °C 27.9 °F /  -2.3 °C 29.82in /  1009.7hPa Calm     28% 0.00in /  0mm 0.0 W/m2
01:50 61.2 °F /  16.2 °C 28.6 °F /  -1.9 °C 29.82in /  1009.7hPa Calm   1.0mph /  1.6km/h 29% 0.00in /  0mm 0.0 W/m2
01:55 61.0 °F /  16.1 °C 27.7 °F /  -2.4 °C 29.82in /  1009.7hPa Calm   2.0mph /  3.2km/h 28% 0.00in /  0mm 0.0 W/m2
02:00 60.6 °F /  15.9 °C 28.2 °F /  -2.1 °C 29.82in /  1009.7hPa East 0.9mph /  1.4km/h 1.0mph /  1.6km/h 29% 0.00in /  0mm 0.0 W/m2
02:06 60.3 °F /  15.7 °C 27.9 °F /  -2.3 °C 29.82in /  1009.7hPa Calm     29% 0.00in /  0mm 0.0 W/m2
02:11 59.9 °F /  15.5 °C 26.8 °F /  -2.9 °C 29.82in /  1009.7hPa Calm     28% 0.00in /  0mm 0.0 W/m2
02:16 59.5 °F /  15.3 °C 27.3 °F /  -2.6 °C 29.82in /  1009.7hPa Calm     29% 0.00in /  0mm 0.0 W/m2
02:21 59.2 °F /  15.1 °C 27.7 °F /  -2.4 °C 29.81in /  1009.4hPa Calm   1.0mph /  1.6km/h 30% 0.00in /  0mm 0.0 W/m2
02:26 59.0 °F /  15 °C 28.4 °F /  -2 °C 29.81in /  1009.4hPa Calm     31% 0.00in /  0mm 0.0 W/m2
02:31 58.8 °F /  14.9 °C 28.2 °F /  -2.1 °C 29.80in /  1009hPa Calm     31% 0.00in /  0mm 0.0 W/m2
02:36 58.6 °F /  14.8 °C 28.0 °F /  -2.2 °C 29.80in /  1009hPa Calm     31% 0.00in /  0mm 0.0 W/m2
02:41 58.3 °F /  14.6 °C 27.0 °F /  -2.8 °C 29.80in /  1009hPa Calm     30% 0.00in /  0mm 0.0 W/m2
02:46 58.1 °F /  14.5 °C 27.7 °F /  -2.4 °C 29.80in /  1009hPa Calm     31% 0.00in /  0mm 0.0 W/m2
02:51 57.9 °F /  14.4 °C 27.5 °F /  -2.5 °C 29.80in /  1009hPa Calm   1.0mph /  1.6km/h 31% 0.00in /  0mm 0.0 W/m2
02:57 57.9 °F /  14.4 °C 27.5 °F /  -2.5 °C 29.80in /  1009hPa Calm   1.0mph /  1.6km/h 31% 0.00in /  0mm 0.0 W/m2
03:02 57.9 °F /  14.4 °C 26.6 °F /  -3 °C 29.80in /  1009hPa Calm     30% 0.00in /  0mm 0.0 W/m2
03:07 57.9 °F /  14.4 °C 26.6 °F /  -3 °C 29.79in /  1008.7hPa Calm     30% 0.00in /  0mm 0.0 W/m2
03:12 57.9 °F /  14.4 °C 26.6 °F /  -3 °C 29.79in /  1008.7hPa Calm   1.0mph /  1.6km/h 30% 0.00in /  0mm 0.0 W/m2
03:17 57.9 °F /  14.4 °C 26.6 °F /  -3 °C 29.79in /  1008.7hPa Calm   1.0mph /  1.6km/h 30% 0.00in /  0mm 0.0 W/m2
03:22 57.9 °F /  14.4 °C 25.9 °F /  -3.4 °C 29.79in /  1008.7hPa Calm   2.0mph /  3.2km/h 29% 0.00in /  0mm 0.0 W/m2
03:27 58.1 °F /  14.5 °C 26.1 °F /  -3.3 °C 29.79in /  1008.7hPa NE 0.9mph /  1.4km/h 4.0mph /  6.4km/h 29% 0.00in /  0mm 0.0 W/m2
03:32 57.9 °F /  14.4 °C 25.9 °F /  -3.4 °C 29.79in /  1008.7hPa Calm   2.0mph /  3.2km/h 29% 0.00in /  0mm 0.0 W/m2
03:37 57.9 °F /  14.4 °C 25.9 °F /  -3.4 °C 29.79in /  1008.7hPa Calm   1.0mph /  1.6km/h 29% 0.00in /  0mm 0.0 W/m2
03:42 57.9 °F /  14.4 °C 25.9 °F /  -3.4 °C 29.79in /  1008.7hPa Calm   1.0mph /  1.6km/h 29% 0.00in /  0mm 0.0 W/m2
03:47 57.9 °F /  14.4 °C 25.0 °F /  -3.9 °C 29.78in /  1008.4hPa Calm   1.0mph /  1.6km/h 28% 0.00in /  0mm 0.0 W/m2
03:53 57.7 °F /  14.3 °C 23.9 °F /  -4.5 °C 29.78in /  1008.4hPa Calm   1.0mph /  1.6km/h 27% 0.00in /  0mm 0.0 W/m2
03:57 57.9 °F /  14.4 °C 24.1 °F /  -4.4 °C 29.78in /  1008.4hPa Calm     27% 0.00in /  0mm 0.0 W/m2
04:02 57.7 °F /  14.3 °C 23.9 °F /  -4.5 °C 29.78in /  1008.4hPa Calm   1.0mph /  1.6km/h 27% 0.00in /  0mm 0.0 W/m2
04:07 57.6 °F /  14.2 °C 23.9 °F /  -4.5 °C 29.78in /  1008.4hPa Calm     27% 0.00in /  0mm 0.0 W/m2
04:12 57.4 °F /  14.1 °C 23.7 °F /  -4.6 °C 29.78in /  1008.4hPa Calm     27% 0.00in /  0mm 0.0 W/m2
04:17 57.2 °F /  14 °C 22.6 °F /  -5.2 °C 29.79in /  1008.7hPa Calm   1.0mph /  1.6km/h 26% 0.00in /  0mm 0.0 W/m2
04:22 57.2 °F /  14 °C 22.6 °F /  -5.2 °C 29.79in /  1008.7hPa Calm   1.0mph /  1.6km/h 26% 0.00in /  0mm 0.0 W/m2
04:27 57.2 °F /  14 °C 22.6 °F /  -5.2 °C 29.79in /  1008.7hPa Calm   1.0mph /  1.6km/h 26% 0.00in /  0mm 0.0 W/m2
04:33 57.0 °F /  13.9 °C 22.5 °F /  -5.3 °C 29.79in /  1008.7hPa Calm   2.0mph /  3.2km/h 26% 0.00in /  0mm 0.0 W/m2
04:38 57.0 °F /  13.9 °C 22.5 °F /  -5.3 °C 29.79in /  1008.7hPa Calm   4.0mph /  6.4km/h 26% 0.00in /  0mm 0.0 W/m2
04:43 57.0 °F /  13.9 °C 22.5 °F /  -5.3 °C 29.79in /  1008.7hPa Calm   1.0mph /  1.6km/h 26% 0.00in /  0mm 0.0 W/m2
04:48 57.0 °F /  13.9 °C 22.5 °F /  -5.3 °C 29.79in /  1008.7hPa ESE 2.0mph /  3.2km/h 2.0mph /  3.2km/h 26% 0.00in /  0mm 0.0 W/m2
04:53 57.0 °F /  13.9 °C 21.6 °F /  -5.8 °C 29.79in /  1008.7hPa Calm   2.0mph /  3.2km/h 25% 0.00in /  0mm 0.0 W/m2
04:58 57.0 °F /  13.9 °C 21.6 °F /  -5.8 °C 29.79in /  1008.7hPa East 0.9mph /  1.4km/h 2.0mph /  3.2km/h 25% 0.00in /  0mm 0.0 W/m2
05:03 57.0 °F /  13.9 °C 20.5 °F /  -6.4 °C 29.79in /  1008.7hPa Calm   3.0mph /  4.8km/h 24% 0.00in /  0mm 0.0 W/m2
05:08 57.0 °F /  13.9 °C 19.6 °F /  -6.9 °C 29.79in /  1008.7hPa Calm     23% 0.00in /  0mm 0.0 W/m2
05:15 57.4 °F /  14.1 °C 19.9 °F /  -6.7 °C 29.79in /  1008.7hPa Calm     23% 0.00in /  0mm 0.0 W/m2
05:20 57.2 °F /  14 °C 16.5 °F /  -8.6 °C 29.79in /  1008.7hPa Calm     20% 0.00in /  0mm 0.0 W/m2
05:25 56.7 °F /  13.7 °C 17.2 °F /  -8.2 °C 29.79in /  1008.7hPa Calm     21% 0.00in /  0mm 0.0 W/m2
05:28 56.5 °F /  13.6 °C 17.1 °F /  -8.3 °C 29.79in /  1008.7hPa Calm     21% 0.00in /  0mm 0.0 W/m2
05:29 56.5 °F /  13.6 °C 17.1 °F /  -8.3 °C 29.79in /  1008.7hPa Calm     21% 0.00in /  0mm 0.0 W/m2
05:34 56.5 °F /  13.6 °C 17.1 °F /  -8.3 °C 29.79in /  1008.7hPa Calm     21% 0.00in /  0mm 0.0 W/m2
05:39 56.7 °F /  13.7 °C 16.0 °F /  -8.9 °C 29.79in /  1008.7hPa Calm   1.0mph /  1.6km/h 20% 0.00in /  0mm 0.0 W/m2
05:44 56.8 °F /  13.8 °C 16.2 °F /  -8.8 °C 29.80in /  1009hPa Calm   2.0mph /  3.2km/h 20% 0.00in /  0mm 0.0 W/m2
05:50 56.8 °F /  13.8 °C 16.2 °F /  -8.8 °C 29.80in /  1009hPa Calm   1.0mph /  1.6km/h 20% 0.00in /  0mm 0.0 W/m2
05:55 56.8 °F /  13.8 °C 15.1 °F /  -9.4 °C 29.80in /  1009hPa Calm     19% 0.00in /  0mm 0.0 W/m2
06:00 56.7 °F /  13.7 °C 13.6 °F /  -10.2 °C 29.80in /  1009hPa Calm     18% 0.00in /  0mm 0.0 W/m2
06:05 56.7 °F /  13.7 °C 12.4 °F /  -10.9 °C 29.80in /  1009hPa Calm   1.0mph /  1.6km/h 17% 0.00in /  0mm 0.0 W/m2
06:10 56.7 °F /  13.7 °C 13.6 °F /  -10.2 °C 29.80in /  1009hPa Calm     18% 0.00in /  0mm 0.0 W/m2
06:15 56.7 °F /  13.7 °C 12.4 °F /  -10.9 °C 29.80in /  1009hPa Calm   1.0mph /  1.6km/h 17% 0.00in /  0mm 0.0 W/m2
06:20 56.7 °F /  13.7 °C 13.6 °F /  -10.2 °C 29.80in /  1009hPa Calm     18% 0.00in /  0mm 0.0 W/m2
06:25 56.5 °F /  13.6 °C 12.2 °F /  -11 °C 29.80in /  1009hPa Calm   1.0mph /  1.6km/h 17% 0.00in /  0mm 0.0 W/m2
06:30 56.5 °F /  13.6 °C 12.2 °F /  -11 °C 29.80in /  1009hPa Calm     17% 0.00in /  0mm 5.0 W/m2
06:36 56.3 °F /  13.5 °C 12.0 °F /  -11.1 °C 29.80in /  1009hPa Calm     17% 0.00in /  0mm 7.0 W/m2
06:41 56.5 °F /  13.6 °C 10.8 °F /  -11.8 °C 29.80in /  1009hPa Calm     16% 0.00in /  0mm 11.0 W/m2
06:46 56.5 °F /  13.6 °C 12.2 °F /  -11 °C 29.80in /  1009hPa Calm   1.0mph /  1.6km/h 17% 0.00in /  0mm 14.0 W/m2
06:51 56.7 °F /  13.7 °C 10.9 °F /  -11.7 °C 29.81in /  1009.4hPa ENE 0.9mph /  1.4km/h 3.0mph /  4.8km/h 16% 0.00in /  0mm 16.0 W/m2
06:56 56.7 °F /  13.7 °C 10.9 °F /  -11.7 °C 29.81in /  1009.4hPa Calm   1.0mph /  1.6km/h 16% 0.00in /  0mm 18.0 W/m2
07:01 56.8 °F /  13.8 °C 11.1 °F /  -11.6 °C 29.82in /  1009.7hPa Calm   2.0mph /  3.2km/h 16% 0.00in /  0mm 23.0 W/m2
07:06 56.8 °F /  13.8 °C 11.1 °F /  -11.6 °C 29.81in /  1009.4hPa Calm   1.0mph /  1.6km/h 16% 0.00in /  0mm 26.0 W/m2
07:11 57.2 °F /  14 °C 9.9 °F /  -12.3 °C 29.82in /  1009.7hPa Calm   1.0mph /  1.6km/h 15% 0.00in /  0mm 26.0 W/m2
07:16 57.4 °F /  14.1 °C 14.2 °F /  -9.9 °C 29.82in /  1009.7hPa Calm     18% 0.00in /  0mm 28.0 W/m2
07:21 57.6 °F /  14.2 °C 14.4 °F /  -9.8 °C 29.82in /  1009.7hPa Calm     18% 0.00in /  0mm 28.0 W/m2
07:27 57.7 °F /  14.3 °C 14.5 °F /  -9.7 °C 29.82in /  1009.7hPa Calm     18% 0.00in /  0mm 28.0 W/m2
07:32 57.9 °F /  14.4 °C 14.7 °F /  -9.6 °C 29.81in /  1009.4hPa Calm     18% 0.00in /  0mm 33.0 W/m2
07:37 58.5 °F /  14.7 °C 15.1 °F /  -9.4 °C 29.82in /  1009.7hPa Calm     18% 0.00in /  0mm 49.0 W/m2
07:42 58.6 °F /  14.8 °C 16.5 °F /  -8.6 °C 29.82in /  1009.7hPa Calm     19% 0.00in /  0mm 51.0 W/m2
07:45 58.8 °F /  14.9 °C 16.7 °F /  -8.5 °C 29.82in /  1009.7hPa Calm     19% 0.00in /  0mm 51.0 W/m2
07:50 59.4 °F /  15.2 °C 15.8 °F /  -9 °C 29.82in /  1009.7hPa Calm     18% 0.00in /  0mm 60.0 W/m2
07:55 59.7 °F /  15.4 °C 17.4 °F /  -8.1 °C 29.82in /  1009.7hPa Calm     19% 0.00in /  0mm 53.0 W/m2
08:00 60.3 °F /  15.7 °C 17.8 °F /  -7.9 °C 29.83in /  1010hPa Calm     19% 0.00in /  0mm 54.0 W/m2
08:06 61.2 °F /  16.2 °C 16.0 °F /  -8.9 °C 29.83in /  1010hPa Calm     17% 0.00in /  0mm 49.0 W/m2
08:11 62.4 °F /  16.9 °C 15.6 °F /  -9.1 °C 29.83in /  1010hPa Calm     16% 0.00in /  0mm 53.0 W/m2
08:16 63.7 °F /  17.6 °C 15.1 °F /  -9.4 °C 29.83in /  1010hPa NW 2.0mph /  3.2km/h 2.0mph /  3.2km/h 15% 0.00in /  0mm 51.0 W/m2
08:21 64.9 °F /  18.3 °C 12.9 °F /  -10.6 °C 29.83in /  1010hPa NNW 0.9mph /  1.4km/h 1.0mph /  1.6km/h 13% 0.00in /  0mm 58.0 W/m2
08:26 65.8 °F /  18.8 °C 13.6 °F /  -10.2 °C 29.83in /  1010hPa Calm   1.0mph /  1.6km/h 13% 0.00in /  0mm 454.0 W/m2
08:31 66.7 °F /  19.3 °C 10.6 °F /  -11.9 °C 29.83in /  1010hPa Calm   1.0mph /  1.6km/h 11% 0.00in /  0mm 469.0 W/m2
08:36 67.6 °F /  19.8 °C 9.1 °F /  -12.7 °C 29.83in /  1010hPa Calm   1.0mph /  1.6km/h 10% 0.00in /  0mm 494.0 W/m2
08:41 68.7 °F /  20.4 °C 9.9 °F /  -12.3 °C 29.83in /  1010hPa Calm   1.0mph /  1.6km/h 10% 0.00in /  0mm 508.0 W/m2
08:46 70.2 °F /  21.2 °C 8.6 °F /  -13 °C 29.83in /  1010hPa Calm   2.0mph /  3.2km/h 9% 0.00in /  0mm 531.0 W/m2
08:52 71.4 °F /  21.9 °C 4.1 °F /  -15.5 °C 29.83in /  1010hPa West 0.9mph /  1.4km/h 3.0mph /  4.8km/h 7% 0.00in /  0mm 541.0 W/m2
08:57 72.3 °F /  22.4 °C 1.4 °F /  -17 °C 29.84in /  1010.4hPa Calm   1.0mph /  1.6km/h 6% 0.00in /  0mm 566.0 W/m2
09:02 73.0 °F /  22.8 °C 5.4 °F /  -14.8 °C 29.84in /  1010.4hPa North 4.0mph /  6.4km/h 5.0mph /  8km/h 7% 0.00in /  0mm 584.0 W/m2
09:07 74.5 °F /  23.6 °C -0.9 °F /  -18.3 °C 29.84in /  1010.4hPa Calm   1.0mph /  1.6km/h 5% 0.00in /  0mm 605.0 W/m2
09:12 75.4 °F /  24.1 °C -0.2 °F /  -17.9 °C 29.84in /  1010.4hPa West 0.9mph /  1.4km/h 3.0mph /  4.8km/h 5% 0.00in /  0mm 624.0 W/m2
09:17 75.6 °F /  24.2 °C -0.2 °F /  -17.9 °C 29.84in /  1010.4hPa WSW 2.0mph /  3.2km/h 3.0mph /  4.8km/h 5% 0.00in /  0mm 640.0 W/m2
09:22 75.7 °F /  24.3 °C 0.0 °F /  -17.8 °C 29.83in /  1010hPa NW 0.9mph /  1.4km/h 3.0mph /  4.8km/h 5% 0.00in /  0mm 649.0 W/m2
09:27 76.3 °F /  24.6 °C 0.3 °F /  -17.6 °C 29.83in /  1010hPa Calm   1.0mph /  1.6km/h 5% 0.00in /  0mm 666.0 W/m2
09:32 76.6 °F /  24.8 °C 0.7 °F /  -17.4 °C 29.83in /  1010hPa NNE 0.9mph /  1.4km/h 2.0mph /  3.2km/h 5% 0.00in /  0mm 668.0 W/m2
09:44 77.7 °F /  25.4 °C -3.3 °F /  -19.6 °C 29.83in /  1010hPa Calm   3.0mph /  4.8km/h 4% 0.00in /  0mm 721.0 W/m2
09:49 78.4 °F /  25.8 °C 1.9 °F /  -16.7 °C 29.83in /  1010hPa Calm     5% 0.00in /  0mm 737.0 W/m2
09:54 79.0 °F /  26.1 °C -2.6 °F /  -19.2 °C 29.83in /  1010hPa North 0.9mph /  1.4km/h 4.0mph /  6.4km/h 4% 0.00in /  0mm 751.0 W/m2
09:59 79.3 °F /  26.3 °C -8.1 °F /  -22.3 °C 29.83in /  1010hPa NNW 0.9mph /  1.4km/h 4.0mph /  6.4km/h 3% 0.00in /  0mm 759.0 W/m2
10:04 79.9 °F /  26.6 °C -1.8 °F /  -18.8 °C 29.83in /  1010hPa Calm   3.0mph /  4.8km/h 4% 0.00in /  0mm 758.0 W/m2
10:09 80.1 °F /  26.7 °C -7.8 °F /  -22.1 °C 29.83in /  1010hPa WSW 0.9mph /  1.4km/h 7.0mph /  11.3km/h 3% 0.00in /  0mm 798.0 W/m2
10:14 80.1 °F /  26.7 °C -1.7 °F /  -18.7 °C 29.83in /  1010hPa West 0.9mph /  1.4km/h 2.0mph /  3.2km/h 4% 0.00in /  0mm 807.0 W/m2
10:19 80.6 °F /  27 °C -1.3 °F /  -18.5 °C 29.83in /  1010hPa WNW 2.9mph /  4.7km/h 3.0mph /  4.8km/h 4% 0.00in /  0mm 812.0 W/m2
10:25 81.0 °F /  27.2 °C -1.1 °F /  -18.4 °C 29.82in /  1009.7hPa WNW 2.9mph /  4.7km/h 7.0mph /  11.3km/h 4% 0.00in /  0mm 837.0 W/m2
10:30 81.3 °F /  27.4 °C -0.9 °F /  -18.3 °C 29.82in /  1009.7hPa West 2.0mph /  3.2km/h 9.0mph /  14.5km/h 4% 0.00in /  0mm 838.0 W/m2
10:35 81.7 °F /  27.6 °C -0.6 °F /  -18.1 °C 29.82in /  1009.7hPa WSW 2.9mph /  4.7km/h 9.0mph /  14.5km/h 4% 0.00in /  0mm 847.0 W/m2
10:40 81.9 °F /  27.7 °C -0.4 °F /  -18 °C 29.82in /  1009.7hPa Calm   5.0mph /  8km/h 4% 0.00in /  0mm 865.0 W/m2
10:45 82.8 °F /  28.2 °C -6.0 °F /  -21.1 °C 29.82in /  1009.7hPa West 4.9mph /  7.9km/h 8.0mph /  12.9km/h 3% 0.00in /  0mm 868.0 W/m2
10:50 82.9 °F /  28.3 °C -5.8 °F /  -21 °C 29.82in /  1009.7hPa WNW 4.9mph /  7.9km/h 12.0mph /  19.3km/h 3% 0.00in /  0mm 882.0 W/m2
10:55 82.8 °F /  28.2 °C 0.1 °F /  -17.7 °C 29.82in /  1009.7hPa NW 0.9mph /  1.4km/h 9.0mph /  14.5km/h 4% 0.00in /  0mm 889.0 W/m2
11:00 83.1 °F /  28.4 °C 0.3 °F /  -17.6 °C 29.81in /  1009.4hPa WNW 4.0mph /  6.4km/h 7.0mph /  11.3km/h 4% 0.00in /  0mm 905.0 W/m2
11:05 83.7 °F /  28.7 °C -5.3 °F /  -20.7 °C 29.81in /  1009.4hPa WSW 8.1mph /  13km/h 8.1mph /  13km/h 3% 0.00in /  0mm 911.0 W/m2
11:10 84.0 °F /  28.9 °C -5.1 °F /  -20.6 °C 29.81in /  1009.4hPa WNW 2.0mph /  3.2km/h 3.0mph /  4.8km/h 3% 0.00in /  0mm 923.0 W/m2
11:16 84.6 °F /  29.2 °C 1.4 °F /  -17 °C 29.81in /  1009.4hPa Calm   5.0mph /  8km/h 4% 0.00in /  0mm 932.0 W/m2
11:21 85.3 °F /  29.6 °C 1.9 °F /  -16.7 °C 29.80in /  1009hPa West 2.9mph /  4.7km/h 8.0mph /  12.9km/h 4% 0.00in /  0mm 937.0 W/m2
11:26 85.5 °F /  29.7 °C 1.9 °F /  -16.7 °C 29.81in /  1009.4hPa WNW 2.9mph /  4.7km/h 8.0mph /  12.9km/h 4% 0.00in /  0mm 942.0 W/m2
11:31 85.5 °F /  29.7 °C 1.9 °F /  -16.7 °C 29.80in /  1009hPa WSW 4.9mph /  7.9km/h 12.0mph /  19.3km/h 4% 0.00in /  0mm 951.0 W/m2
11:36 85.3 °F /  29.6 °C -4.2 °F /  -20.1 °C 29.80in /  1009hPa WNW 0.9mph /  1.4km/h 5.0mph /  8km/h 3% 0.00in /  0mm 963.0 W/m2
11:41 84.9 °F /  29.4 °C 1.6 °F /  -16.9 °C 29.79in /  1008.7hPa WNW 4.9mph /  7.9km/h 14.0mph /  22.5km/h 4% 0.00in /  0mm 967.0 W/m2
11:46 85.3 °F /  29.6 °C 1.9 °F /  -16.7 °C 29.79in /  1008.7hPa Calm   6.0mph /  9.7km/h 4% 0.00in /  0mm 972.0 W/m2
11:51 85.3 °F /  29.6 °C 1.9 °F /  -16.7 °C 29.79in /  1008.7hPa WSW 4.0mph /  6.4km/h 11.0mph /  17.7km/h 4% 0.00in /  0mm 1028.0 W/m2
11:57 85.5 °F /  29.7 °C 1.9 °F /  -16.7 °C 29.79in /  1008.7hPa West 10.1mph /  16.3km/h 10.1mph /  16.3km/h 4% 0.00in /  0mm 970.0 W/m2
12:02 86.4 °F /  30.2 °C 2.7 °F /  -16.3 °C 29.79in /  1008.7hPa West 4.9mph /  7.9km/h 7.0mph /  11.3km/h 4% 0.00in /  0mm 967.0 W/m2
12:07 86.7 °F /  30.4 °C 2.8 °F /  -16.2 °C 29.79in /  1008.7hPa West 2.9mph /  4.7km/h 8.0mph /  12.9km/h 4% 0.00in /  0mm 995.0 W/m2
12:12 87.1 °F /  30.6 °C 3.0 °F /  -16.1 °C 29.78in /  1008.4hPa WNW 2.0mph /  3.2km/h 10.0mph /  16.1km/h 4% 0.00in /  0mm 991.0 W/m2
12:17 87.4 °F /  30.8 °C 3.4 °F /  -15.9 °C 29.78in /  1008.4hPa WNW 4.0mph /  6.4km/h 9.0mph /  14.5km/h 4% 0.00in /  0mm 988.0 W/m2
12:22 88.0 °F /  31.1 °C 3.7 °F /  -15.7 °C 29.78in /  1008.4hPa NW 0.9mph /  1.4km/h 8.0mph /  12.9km/h 4% 0.00in /  0mm 988.0 W/m2
12:27 88.2 °F /  31.2 °C 3.9 °F /  -15.6 °C 29.78in /  1008.4hPa WNW 0.9mph /  1.4km/h 11.0mph /  17.7km/h 4% 0.00in /  0mm 993.0 W/m2
12:32 88.7 °F /  31.5 °C 4.3 °F /  -15.4 °C 29.78in /  1008.4hPa WSW 8.9mph /  14.3km/h 12.0mph /  19.3km/h 4% 0.00in /  0mm 997.0 W/m2
12:37 88.5 °F /  31.4 °C 9.0 °F /  -12.8 °C 29.77in /  1008hPa West 8.1mph /  13km/h 9.0mph /  14.5km/h 5% 0.00in /  0mm 1000.0 W/m2
12:42 88.2 °F /  31.2 °C 8.8 °F /  -12.9 °C 29.77in /  1008hPa WNW 2.0mph /  3.2km/h 4.0mph /  6.4km/h 5% 0.00in /  0mm 1002.0 W/m2
12:47 88.7 °F /  31.5 °C 9.1 °F /  -12.7 °C 29.77in /  1008hPa West 0.9mph /  1.4km/h 11.0mph /  17.7km/h 5% 0.00in /  0mm 1009.0 W/m2
12:53 89.1 °F /  31.7 °C 9.3 °F /  -12.6 °C 29.77in /  1008hPa WSW 11.0mph /  17.7km/h 16.0mph /  25.7km/h 5% 0.00in /  0mm 1007.0 W/m2
12:59 88.5 °F /  31.4 °C 9.0 °F /  -12.8 °C 29.76in /  1007.7hPa SW 2.0mph /  3.2km/h 8.0mph /  12.9km/h 5% 0.00in /  0mm 998.0 W/m2
13:04 88.5 °F /  31.4 °C 9.0 °F /  -12.8 °C 29.76in /  1007.7hPa WSW 0.9mph /  1.4km/h 3.0mph /  4.8km/h 5% 0.00in /  0mm 1002.0 W/m2
13:07 88.9 °F /  31.6 °C 9.3 °F /  -12.6 °C 29.76in /  1007.7hPa NW 8.1mph /  13km/h 13.0mph /  20.9km/h 5% 0.00in /  0mm 998.0 W/m2
13:12 88.9 °F /  31.6 °C 9.3 °F /  -12.6 °C 29.76in /  1007.7hPa West 6.9mph /  11.1km/h 11.0mph /  17.7km/h 5% 0.00in /  0mm 995.0 W/m2
13:17 88.3 °F /  31.3 °C 8.8 °F /  -12.9 °C 29.75in /  1007.3hPa SSW 4.9mph /  7.9km/h 7.0mph /  11.3km/h 5% 0.00in /  0mm 995.0 W/m2
13:22 88.9 °F /  31.6 °C 13.3 °F /  -10.4 °C 29.75in /  1007.3hPa NW 2.9mph /  4.7km/h 12.0mph /  19.3km/h 6% 0.00in /  0mm 979.0 W/m2
13:27 90.0 °F /  32.2 °C 14.2 °F /  -9.9 °C 29.75in /  1007.3hPa SW 6.0mph /  9.7km/h 10.0mph /  16.1km/h 6% 0.00in /  0mm 977.0 W/m2
13:32 90.0 °F /  32.2 °C 14.2 °F /  -9.9 °C 29.75in /  1007.3hPa SW 6.0mph /  9.7km/h 9.0mph /  14.5km/h 6% 0.00in /  0mm 970.0 W/m2
13:37 89.8 °F /  32.1 °C 17.6 °F /  -8 °C 29.74in /  1007hPa Calm   13.0mph /  20.9km/h 7% 0.00in /  0mm 965.0 W/m2
13:43 90.5 °F /  32.5 °C 18.1 °F /  -7.7 °C 29.74in /  1007hPa NW 2.9mph /  4.7km/h 10.0mph /  16.1km/h 7% 0.00in /  0mm 958.0 W/m2
13:48 90.7 °F /  32.6 °C 14.7 °F /  -9.6 °C 29.74in /  1007hPa West 10.1mph /  16.3km/h 14.0mph /  22.5km/h 6% 0.00in /  0mm 954.0 W/m2
13:53 90.3 °F /  32.4 °C 18.0 °F /  -7.8 °C 29.74in /  1007hPa WSW 6.9mph /  11.1km/h 9.0mph /  14.5km/h 7% 0.00in /  0mm 935.0 W/m2
13:59 90.3 °F /  32.4 °C 18.0 °F /  -7.8 °C 29.73in /  1006.7hPa West 4.9mph /  7.9km/h 10.0mph /  16.1km/h 7% 0.00in /  0mm 923.0 W/m2
14:04 91.2 °F /  32.9 °C 18.5 °F /  -7.5 °C 29.73in /  1006.7hPa SW 6.0mph /  9.7km/h 7.0mph /  11.3km/h 7% 0.00in /  0mm 921.0 W/m2
14:09 91.6 °F /  33.1 °C 18.9 °F /  -7.3 °C 29.72in /  1006.3hPa WNW 8.9mph /  14.3km/h 12.0mph /  19.3km/h 7% 0.00in /  0mm 909.0 W/m2
14:14 91.4 °F /  33 °C 18.7 °F /  -7.4 °C 29.72in /  1006.3hPa West 2.9mph /  4.7km/h 11.0mph /  17.7km/h 7% 0.00in /  0mm 918.0 W/m2
14:19 91.0 °F /  32.8 °C 18.5 °F /  -7.5 °C 29.72in /  1006.3hPa WSW 6.9mph /  11.1km/h 15.0mph /  24.1km/h 7% 0.00in /  0mm 865.0 W/m2
14:24 91.2 °F /  32.9 °C 18.5 °F /  -7.5 °C 29.72in /  1006.3hPa WNW 0.9mph /  1.4km/h 8.0mph /  12.9km/h 7% 0.00in /  0mm 886.0 W/m2
14:29 91.2 °F /  32.9 °C 18.5 °F /  -7.5 °C 29.73in /  1006.7hPa NNW 8.9mph /  14.3km/h 14.0mph /  22.5km/h 7% 0.00in /  0mm 846.0 W/m2
14:35 90.9 °F /  32.7 °C 18.3 °F /  -7.6 °C 29.72in /  1006.3hPa WNW 0.9mph /  1.4km/h 12.0mph /  19.3km/h 7% 0.00in /  0mm 821.0 W/m2
14:40 90.5 °F /  32.5 °C 18.1 °F /  -7.7 °C 29.72in /  1006.3hPa NW 2.9mph /  4.7km/h 15.0mph /  24.1km/h 7% 0.00in /  0mm 847.0 W/m2
14:45 90.7 °F /  32.6 °C 18.1 °F /  -7.7 °C 29.72in /  1006.3hPa West 2.0mph /  3.2km/h 8.0mph /  12.9km/h 7% 0.00in /  0mm 795.0 W/m2
14:50 90.7 °F /  32.6 °C 18.1 °F /  -7.7 °C 29.72in /  1006.3hPa West 4.9mph /  7.9km/h 13.0mph /  20.9km/h 7% 0.00in /  0mm 784.0 W/m2
14:55 90.7 °F /  32.6 °C 18.1 °F /  -7.7 °C 29.72in /  1006.3hPa WSW 13.0mph /  20.9km/h 13.0mph /  20.9km/h 7% 0.00in /  0mm 733.0 W/m2
15:00 90.1 °F /  32.3 °C 17.8 °F /  -7.9 °C 29.72in /  1006.3hPa WSW 4.0mph /  6.4km/h 13.0mph /  20.9km/h 7% 0.00in /  0mm 800.0 W/m2
15:05 89.4 °F /  31.9 °C 17.2 °F /  -8.2 °C 29.72in /  1006.3hPa WSW 10.1mph /  16.3km/h 15.0mph /  24.1km/h 7% 0.00in /  0mm 772.0 W/m2
15:10 89.2 °F /  31.8 °C 17.1 °F /  -8.3 °C 29.73in /  1006.7hPa WSW 8.1mph /  13km/h 14.0mph /  22.5km/h 7% 0.00in /  0mm 726.0 W/m2
15:16 89.8 °F /  32.1 °C 17.6 °F /  -8 °C 29.72in /  1006.3hPa WNW 4.0mph /  6.4km/h 18.0mph /  29km/h 7% 0.00in /  0mm 758.0 W/m2
15:21 89.8 °F /  32.1 °C 17.6 °F /  -8 °C 29.72in /  1006.3hPa WSW 2.9mph /  4.7km/h 13.0mph /  20.9km/h 7% 0.00in /  0mm 745.0 W/m2
15:26 90.0 °F /  32.2 °C 14.2 °F /  -9.9 °C 29.72in /  1006.3hPa SW 15.0mph /  24.1km/h 15.0mph /  24.1km/h 6% 0.00in /  0mm 703.0 W/m2
15:31 89.6 °F /  32 °C 17.4 °F /  -8.1 °C 29.72in /  1006.3hPa WNW 6.9mph /  11.1km/h 15.0mph /  24.1km/h 7% 0.00in /  0mm 682.0 W/m2
15:36 90.0 °F /  32.2 °C 14.2 °F /  -9.9 °C 29.72in /  1006.3hPa North 4.9mph /  7.9km/h 10.0mph /  16.1km/h 6% 0.00in /  0mm 677.0 W/m2
15:41 90.5 °F /  32.5 °C 14.5 °F /  -9.7 °C 29.72in /  1006.3hPa West 4.9mph /  7.9km/h 9.0mph /  14.5km/h 6% 0.00in /  0mm 661.0 W/m2
15:46 90.9 °F /  32.7 °C 14.7 °F /  -9.6 °C 29.72in /  1006.3hPa WNW 6.9mph /  11.1km/h 10.0mph /  16.1km/h 6% 0.00in /  0mm 652.0 W/m2
15:51 91.0 °F /  32.8 °C 14.9 °F /  -9.5 °C 29.72in /  1006.3hPa WSW 11.0mph /  17.7km/h 15.0mph /  24.1km/h 6% 0.00in /  0mm 626.0 W/m2
15:56 90.9 °F /  32.7 °C 10.6 °F /  -11.9 °C 29.72in /  1006.3hPa WSW 8.9mph /  14.3km/h 14.0mph /  22.5km/h 5% 0.00in /  0mm 624.0 W/m2
16:02 90.7 °F /  32.6 °C 10.6 °F /  -11.9 °C 29.72in /  1006.3hPa SW 2.9mph /  4.7km/h 15.0mph /  24.1km/h 5% 0.00in /  0mm 598.0 W/m2
16:07 90.3 °F /  32.4 °C 10.2 °F /  -12.1 °C 29.72in /  1006.3hPa WNW 2.9mph /  4.7km/h 13.0mph /  20.9km/h 5% 0.00in /  0mm 578.0 W/m2
16:13 90.0 °F /  32.2 °C 10.0 °F /  -12.2 °C 29.72in /  1006.3hPa WNW 4.0mph /  6.4km/h 9.0mph /  14.5km/h 5% 0.00in /  0mm 548.0 W/m2
16:18 90.0 °F /  32.2 °C 10.0 °F /  -12.2 °C 29.72in /  1006.3hPa WNW 6.9mph /  11.1km/h 17.0mph /  27.4km/h 5% 0.00in /  0mm 531.0 W/m2
16:23 89.8 °F /  32.1 °C 9.9 °F /  -12.3 °C 29.72in /  1006.3hPa West 0.9mph /  1.4km/h 11.0mph /  17.7km/h 5% 0.00in /  0mm 513.0 W/m2
16:28 89.8 °F /  32.1 °C 9.9 °F /  -12.3 °C 29.72in /  1006.3hPa WNW 4.0mph /  6.4km/h 12.0mph /  19.3km/h 5% 0.00in /  0mm 499.0 W/m2
16:33 89.8 °F /  32.1 °C 9.9 °F /  -12.3 °C 29.73in /  1006.7hPa West 8.1mph /  13km/h 17.0mph /  27.4km/h 5% 0.00in /  0mm 489.0 W/m2
16:38 89.8 °F /  32.1 °C 9.9 °F /  -12.3 °C 29.72in /  1006.3hPa NNW 8.9mph /  14.3km/h 9.0mph /  14.5km/h 5% 0.00in /  0mm 466.0 W/m2
16:43 89.8 °F /  32.1 °C 9.9 °F /  -12.3 °C 29.73in /  1006.7hPa WNW 2.9mph /  4.7km/h 14.0mph /  22.5km/h 5% 0.00in /  0mm 441.0 W/m2
16:49 89.4 °F /  31.9 °C 9.7 °F /  -12.4 °C 29.73in /  1006.7hPa NW 4.0mph /  6.4km/h 6.0mph /  9.7km/h 5% 0.00in /  0mm 441.0 W/m2
16:54 89.4 °F /  31.9 °C 9.7 °F /  -12.4 °C 29.73in /  1006.7hPa West 2.0mph /  3.2km/h 7.0mph /  11.3km/h 5% 0.00in /  0mm 388.0 W/m2
16:59 89.4 °F /  31.9 °C 4.6 °F /  -15.2 °C 29.73in /  1006.7hPa WSW 10.1mph /  16.3km/h 15.0mph /  24.1km/h 4% 0.00in /  0mm 320.0 W/m2
17:04 89.2 °F /  31.8 °C 4.6 °F /  -15.2 °C 29.74in /  1007hPa West 8.1mph /  13km/h 10.0mph /  16.1km/h 4% 0.00in /  0mm 399.0 W/m2
17:09 89.1 °F /  31.7 °C 4.5 °F /  -15.3 °C 29.73in /  1006.7hPa WNW 2.9mph /  4.7km/h 15.0mph /  24.1km/h 4% 0.00in /  0mm 211.0 W/m2
17:14 88.9 °F /  31.6 °C 4.3 °F /  -15.4 °C 29.73in /  1006.7hPa West 6.0mph /  9.7km/h 8.0mph /  12.9km/h 4% 0.00in /  0mm 345.0 W/m2
17:19 88.3 °F /  31.3 °C 3.9 °F /  -15.6 °C 29.73in /  1006.7hPa WNW 8.1mph /  13km/h 13.0mph /  20.9km/h 4% 0.00in /  0mm 325.0 W/m2
17:24 87.6 °F /  30.9 °C 3.6 °F /  -15.8 °C 29.73in /  1006.7hPa WNW 4.0mph /  6.4km/h 13.0mph /  20.9km/h 4% 0.00in /  0mm 302.0 W/m2
17:29 87.1 °F /  30.6 °C 3.0 °F /  -16.1 °C 29.74in /  1007hPa WSW 6.9mph /  11.1km/h 14.0mph /  22.5km/h 4% 0.00in /  0mm 278.0 W/m2
17:34 87.3 °F /  30.7 °C 3.2 °F /  -16 °C 29.74in /  1007hPa SW 8.9mph /  14.3km/h 16.0mph /  25.7km/h 4% 0.00in /  0mm 257.0 W/m2
17:40 86.5 °F /  30.3 °C 2.7 °F /  -16.3 °C 29.75in /  1007.3hPa West 13.0mph /  20.9km/h 14.0mph /  22.5km/h 4% 0.00in /  0mm 239.0 W/m2
17:45 86.4 °F /  30.2 °C 2.7 °F /  -16.3 °C 29.75in /  1007.3hPa NW 4.9mph /  7.9km/h 14.0mph /  22.5km/h 4% 0.00in /  0mm 221.0 W/m2
17:50 86.0 °F /  30 °C 2.3 °F /  -16.5 °C 29.75in /  1007.3hPa SW 8.9mph /  14.3km/h 13.0mph /  20.9km/h 4% 0.00in /  0mm 204.0 W/m2
17:55 85.6 °F /  29.8 °C 2.1 °F /  -16.6 °C 29.75in /  1007.3hPa NW 6.9mph /  11.1km/h 13.0mph /  20.9km/h 4% 0.00in /  0mm 188.0 W/m2
18:00 85.5 °F /  29.7 °C 1.9 °F /  -16.7 °C 29.76in /  1007.7hPa WNW 4.9mph /  7.9km/h 13.0mph /  20.9km/h 4% 0.00in /  0mm 158.0 W/m2
18:05 85.3 °F /  29.6 °C 1.9 °F /  -16.7 °C 29.76in /  1007.7hPa WSW 4.0mph /  6.4km/h 9.0mph /  14.5km/h 4% 0.00in /  0mm 137.0 W/m2
18:10 84.9 °F /  29.4 °C 1.6 °F /  -16.9 °C 29.76in /  1007.7hPa West 2.9mph /  4.7km/h 8.0mph /  12.9km/h 4% 0.00in /  0mm 116.0 W/m2
18:15 84.7 °F /  29.3 °C 1.6 °F /  -16.9 °C 29.76in /  1007.7hPa West 2.9mph /  4.7km/h 9.0mph /  14.5km/h 4% 0.00in /  0mm 95.0 W/m2
18:21 84.6 °F /  29.2 °C 1.4 °F /  -17 °C 29.76in /  1007.7hPa WSW 8.1mph /  13km/h 13.0mph /  20.9km/h 4% 0.00in /  0mm 74.0 W/m2
18:26 83.8 °F /  28.8 °C 0.9 °F /  -17.3 °C 29.77in /  1008hPa West 4.9mph /  7.9km/h 17.0mph /  27.4km/h 4% 0.00in /  0mm 53.0 W/m2
18:31 83.3 °F /  28.5 °C 0.5 °F /  -17.5 °C 29.77in /  1008hPa WNW 4.0mph /  6.4km/h 9.0mph /  14.5km/h 4% 0.00in /  0mm 39.0 W/m2
18:36 82.9 °F /  28.3 °C 0.3 °F /  -17.6 °C 29.77in /  1008hPa WNW 6.9mph /  11.1km/h 9.0mph /  14.5km/h 4% 0.00in /  0mm 19.0 W/m2
18:41 82.4 °F /  28 °C 0.0 °F /  -17.8 °C 29.77in /  1008hPa West 0.9mph /  1.4km/h 7.0mph /  11.3km/h 4% 0.00in /  0mm 14.0 W/m2
18:46 81.9 °F /  27.7 °C -0.4 °F /  -18 °C 29.78in /  1008.4hPa Calm   6.0mph /  9.7km/h 4% 0.00in /  0mm 9.0 W/m2
18:51 81.5 °F /  27.5 °C 4.1 °F /  -15.5 °C 29.78in /  1008.4hPa West 2.0mph /  3.2km/h 5.0mph /  8km/h 5% 0.00in /  0mm 5.0 W/m2
18:56 81.0 °F /  27.2 °C 3.7 °F /  -15.7 °C 29.78in /  1008.4hPa WSW 4.0mph /  6.4km/h 8.0mph /  12.9km/h 5% 0.00in /  0mm 0.0 W/m2
19:01 80.6 °F /  27 °C 3.4 °F /  -15.9 °C 29.78in /  1008.4hPa West 2.9mph /  4.7km/h 4.0mph /  6.4km/h 5% 0.00in /  0mm 0.0 W/m2
19:06 80.2 °F /  26.8 °C 3.2 °F /  -16 °C 29.78in /  1008.4hPa WNW 0.9mph /  1.4km/h 6.0mph /  9.7km/h 5% 0.00in /  0mm 0.0 W/m2
19:11 79.9 °F /  26.6 °C 2.8 °F /  -16.2 °C 29.78in /  1008.4hPa Calm   4.0mph /  6.4km/h 5% 0.00in /  0mm 0.0 W/m2
19:17 79.5 °F /  26.4 °C 2.7 °F /  -16.3 °C 29.78in /  1008.4hPa West 2.0mph /  3.2km/h 4.0mph /  6.4km/h 5% 0.00in /  0mm 0.0 W/m2
19:22 79.2 °F /  26.2 °C 2.5 °F /  -16.4 °C 29.79in /  1008.7hPa Calm   2.0mph /  3.2km/h 5% 0.00in /  0mm 0.0 W/m2
19:27 79.0 °F /  26.1 °C 2.3 °F /  -16.5 °C 29.79in /  1008.7hPa Calm   3.0mph /  4.8km/h 5% 0.00in /  0mm 0.0 W/m2
19:32 78.6 °F /  25.9 °C 5.9 °F /  -14.5 °C 29.79in /  1008.7hPa Calm     6% 0.00in /  0mm 0.0 W/m2
19:37 78.3 °F /  25.7 °C 1.8 °F /  -16.8 °C 29.80in /  1009hPa Calm   2.0mph /  3.2km/h 5% 0.00in /  0mm 0.0 W/m2
19:42 77.7 °F /  25.4 °C 5.4 °F /  -14.8 °C 29.80in /  1009hPa Calm   1.0mph /  1.6km/h 6% 0.00in /  0mm 0.0 W/m2
19:47 77.4 °F /  25.2 °C 5.0 °F /  -15 °C 29.80in /  1009hPa Calm   3.0mph /  4.8km/h 6% 0.00in /  0mm 0.0 W/m2
19:52 77.2 °F /  25.1 °C 5.0 °F /  -15 °C 29.80in /  1009hPa West 0.9mph /  1.4km/h 5.0mph /  8km/h 6% 0.00in /  0mm 0.0 W/m2
19:58 76.6 °F /  24.8 °C 4.5 °F /  -15.3 °C 29.81in /  1009.4hPa Calm   1.0mph /  1.6km/h 6% 0.00in /  0mm 0.0 W/m2
20:03 76.1 °F /  24.5 °C 4.1 °F /  -15.5 °C 29.81in /  1009.4hPa WSW 0.9mph /  1.4km/h 3.0mph /  4.8km/h 6% 0.00in /  0mm 0.0 W/m2
20:08 75.6 °F /  24.2 °C 3.7 °F /  -15.7 °C 29.82in /  1009.7hPa Calm     6% 0.00in /  0mm 0.0 W/m2
20:13 75.2 °F /  24 °C 3.6 °F /  -15.8 °C 29.82in /  1009.7hPa Calm   3.0mph /  4.8km/h 6% 0.00in /  0mm 0.0 W/m2
20:18 74.8 °F /  23.8 °C 6.6 °F /  -14.1 °C 29.82in /  1009.7hPa Calm   1.0mph /  1.6km/h 7% 0.00in /  0mm 0.0 W/m2
20:23 74.5 °F /  23.6 °C 6.3 °F /  -14.3 °C 29.83in /  1010hPa Calm     7% 0.00in /  0mm 0.0 W/m2
20:28 74.1 °F /  23.4 °C 6.1 °F /  -14.4 °C 29.83in /  1010hPa Calm     7% 0.00in /  0mm 0.0 W/m2
20:33 73.8 °F /  23.2 °C 5.9 °F /  -14.5 °C 29.84in /  1010.4hPa Calm     7% 0.00in /  0mm 0.0 W/m2
20:38 73.2 °F /  22.9 °C 8.4 °F /  -13.1 °C 29.84in /  1010.4hPa Calm     8% 0.00in /  0mm 0.0 W/m2
20:43 72.9 °F /  22.7 °C 8.1 °F /  -13.3 °C 29.85in /  1010.7hPa Calm   1.0mph /  1.6km/h 8% 0.00in /  0mm 0.0 W/m2
20:49 72.3 °F /  22.4 °C 10.2 °F /  -12.1 °C 29.85in /  1010.7hPa Calm     9% 0.00in /  0mm 0.0 W/m2
20:54 72.0 °F /  22.2 °C 10.0 °F /  -12.2 °C 29.85in /  1010.7hPa Calm   1.0mph /  1.6km/h 9% 0.00in /  0mm 0.0 W/m2
20:59 71.8 °F /  22.1 °C 9.9 °F /  -12.3 °C 29.85in /  1010.7hPa Calm     9% 0.00in /  0mm 0.0 W/m2
21:04 71.6 °F /  22 °C 9.7 °F /  -12.4 °C 29.85in /  1010.7hPa Calm     9% 0.00in /  0mm 0.0 W/m2
21:09 71.2 °F /  21.8 °C 9.5 °F /  -12.5 °C 29.85in /  1010.7hPa Calm   1.0mph /  1.6km/h 9% 0.00in /  0mm 0.0 W/m2
21:14 70.9 °F /  21.6 °C 11.7 °F /  -11.3 °C 29.85in /  1010.7hPa Calm     10% 0.00in /  0mm 0.0 W/m2
21:19 70.5 °F /  21.4 °C 11.3 °F /  -11.5 °C 29.86in /  1011.1hPa Calm     10% 0.00in /  0mm 0.0 W/m2
21:24 70.2 °F /  21.2 °C 11.1 °F /  -11.6 °C 29.86in /  1011.1hPa Calm     10% 0.00in /  0mm 0.0 W/m2
21:29 69.6 °F /  20.9 °C 10.6 °F /  -11.9 °C 29.86in /  1011.1hPa Calm     10% 0.00in /  0mm 0.0 W/m2
21:35 69.3 °F /  20.7 °C 10.4 °F /  -12 °C 29.86in /  1011.1hPa Calm     10% 0.00in /  0mm 0.0 W/m2
21:40 68.9 °F /  20.5 °C 12.2 °F /  -11 °C 29.86in /  1011.1hPa Calm     11% 0.00in /  0mm 0.0 W/m2
21:45 68.4 °F /  20.2 °C 11.8 °F /  -11.2 °C 29.86in /  1011.1hPa Calm     11% 0.00in /  0mm 0.0 W/m2
21:50 68.2 °F /  20.1 °C 11.7 °F /  -11.3 °C 29.86in /  1011.1hPa Calm     11% 0.00in /  0mm 0.0 W/m2
21:55 67.6 °F /  19.8 °C 11.3 °F /  -11.5 °C 29.86in /  1011.1hPa Calm     11% 0.00in /  0mm 0.0 W/m2
22:00 67.3 °F /  19.6 °C 10.9 °F /  -11.7 °C 29.86in /  1011.1hPa Calm     11% 0.00in /  0mm 0.0 W/m2
22:05 66.7 °F /  19.3 °C 10.6 °F /  -11.9 °C 29.86in /  1011.1hPa Calm     11% 0.00in /  0mm 0.0 W/m2
22:10 66.4 °F /  19.1 °C 12.2 °F /  -11 °C 29.87in /  1011.4hPa Calm     12% 0.00in /  0mm 0.0 W/m2
22:16 65.8 °F /  18.8 °C 9.9 °F /  -12.3 °C 29.87in /  1011.4hPa Calm   1.0mph /  1.6km/h 11% 0.00in /  0mm 0.0 W/m2
22:22 65.5 °F /  18.6 °C 11.5 °F /  -11.4 °C 29.87in /  1011.4hPa Calm   1.0mph /  1.6km/h 12% 0.00in /  0mm 0.0 W/m2
22:27 65.1 °F /  18.4 °C 9.3 °F /  -12.6 °C 29.87in /  1011.4hPa Calm     11% 0.00in /  0mm 0.0 W/m2
22:29 64.9 °F /  18.3 °C 11.1 °F /  -11.6 °C 29.87in /  1011.4hPa Calm     12% 0.00in /  0mm 0.0 W/m2
22:34 64.6 °F /  18.1 °C 10.8 °F /  -11.8 °C 29.87in /  1011.4hPa Calm     12% 0.00in /  0mm 0.0 W/m2
22:39 64.2 °F /  17.9 °C 10.6 °F /  -11.9 °C 29.87in /  1011.4hPa Calm     12% 0.00in /  0mm 0.0 W/m2
22:44 64.0 °F /  17.8 °C 10.4 °F /  -12 °C 29.87in /  1011.4hPa Calm     12% 0.00in /  0mm 0.0 W/m2
22:49 63.7 °F /  17.6 °C 10.0 °F /  -12.2 °C 29.87in /  1011.4hPa Calm   3.0mph /  4.8km/h 12% 0.00in /  0mm 0.0 W/m2
22:54 63.5 °F /  17.5 °C 10.0 °F /  -12.2 °C 29.87in /  1011.4hPa Calm   2.0mph /  3.2km/h 12% 0.00in /  0mm 0.0 W/m2
22:59 63.3 °F /  17.4 °C 9.9 °F /  -12.3 °C 29.87in /  1011.4hPa Calm     12% 0.00in /  0mm 0.0 W/m2
23:04 63.0 °F /  17.2 °C 9.5 °F /  -12.5 °C 29.87in /  1011.4hPa Calm     12% 0.00in /  0mm 0.0 W/m2
23:10 62.8 °F /  17.1 °C 11.1 °F /  -11.6 °C 29.87in /  1011.4hPa Calm     13% 0.00in /  0mm 0.0 W/m2
23:15 62.4 °F /  16.9 °C 10.9 °F /  -11.7 °C 29.87in /  1011.4hPa Calm     13% 0.00in /  0mm 0.0 W/m2
23:20 62.1 °F /  16.7 °C 10.6 °F /  -11.9 °C 29.87in /  1011.4hPa Calm     13% 0.00in /  0mm 0.0 W/m2
23:25 61.5 °F /  16.4 °C 11.8 °F /  -11.2 °C 29.87in /  1011.4hPa Calm     14% 0.00in /  0mm 0.0 W/m2
23:30 61.2 °F /  16.2 °C 11.5 °F /  -11.4 °C 29.87in /  1011.4hPa Calm     14% 0.00in /  0mm 0.0 W/m2
23:35 61.0 °F /  16.1 °C 11.5 °F /  -11.4 °C 29.87in /  1011.4hPa Calm     14% 0.00in /  0mm 0.0 W/m2
23:40 60.6 °F /  15.9 °C 9.5 °F /  -12.5 °C 29.87in /  1011.4hPa Calm     13% 0.00in /  0mm 0.0 W/m2
23:45 60.3 °F /  15.7 °C 10.9 °F /  -11.7 °C 29.87in /  1011.4hPa Calm     14% 0.00in /  0mm 0.0 W/m2
23:50 60.1 °F /  15.6 °C 10.8 °F /  -11.8 °C 29.87in /  1011.4hPa Calm     14% 0.00in /  0mm 0.0 W/m2
23:56 59.7 °F /  15.4 °C 12.0 °F /  -11.1 °C 29.86in /  1011.1hPa Calm     15% 0.00in /  0mm 0.0 W/m2
Olympia, Windhoek, Namibia
Compliments of Weather Underground - 3.25 mb